This is the latest recevied weather packets stored in our database for station/object K2CCS. If no packets are shown the sender has not sent any weather packets the latest 1 day(s).
| Time | Temp. | Humidity | Pressure | Rain* | Wind** | Luminosity | Snow |
|---|---|---|---|---|---|---|---|
| 1778029668 | 17.78° C | 77% | 1011.4 hPa | 0 mm | 0 m/s | 0 W/m² | - |
| 1778029366 | 17.78° C | 77% | 1011.6 hPa | 0 mm | 0.45 m/s, 183° | 0 W/m² | - |
| 1778029063 | 17.78° C | 77% | 1011.3 hPa | 0 mm | 0.45 m/s, 190° | 0 W/m² | - |
| 1778028759 | 17.78° C | 77% | 1011.1 hPa | 0 mm | 0 m/s | 0 W/m² | - |
| 1778028455 | 17.78° C | 76% | 1010.8 hPa | 0 mm | 0 m/s | 0 W/m² | - |
| 1778028153 | 17.78° C | 77% | 1010.7 hPa | 0 mm | 0 m/s | 0 W/m² | - |
| 1778027849 | 17.78° C | 76% | 1010.6 hPa | 0 mm | 0 m/s | 0 W/m² | - |
| 1778027546 | 17.78° C | 75% | 1010.6 hPa | 0 mm | 0.45 m/s, 188° | 0 W/m² | - |
| 1778027241 | 17.78° C | 75% | 1010.7 hPa | 0 mm | 0 m/s | 0 W/m² | - |
| 1778026938 | 17.78° C | 74% | 1010.5 hPa | 0 mm | 0 m/s | 0 W/m² | - |
| 1778026634 | 18.33° C | 74% | 1010.4 hPa | 0 mm | 0.45 m/s, 181° | 0 W/m² | - |
| 1778026332 | 18.33° C | 73% | 1010.4 hPa | 0 mm | 0 m/s | 0 W/m² | - |
| 1778026028 | 18.33° C | 72% | 1010.4 hPa | 0 mm | 0 m/s | 0 W/m² | - |
| 1778025726 | 18.89° C | 70% | 1010.4 hPa | 0 mm | 0 m/s | 0 W/m² | - |
| 1778025423 | 19.44° C | 69% | 1010.4 hPa | 0 mm | 0 m/s | 1 W/m² | - |
| 1778025121 | 19.44° C | 67% | 1010.6 hPa | 0 mm | 0.45 m/s, 177° | 3 W/m² | - |
| 1778024817 | 20° C | 66% | 1010.2 hPa | 0 mm | 0.89 m/s, 230° | 4 W/m² | - |
| 1778024515 | 20° C | 66% | 1010.2 hPa | 0 mm | 1.34 m/s, 224° | 8 W/m² | - |
| 1778024211 | 20° C | 66% | 1010.1 hPa | 0 mm | 0.45 m/s, 212° | 11 W/m² | - |
| 1778023909 | 20° C | 65% | 1010.2 hPa | 0 mm | 0.45 m/s, 201° | 13 W/m² | - |
| 1778023606 | 20° C | 64% | 1009.7 hPa | 0 mm | 1.79 m/s, 280° | 18 W/m² | - |
| 1778023304 | 20° C | 65% | 1009.9 hPa | 0 mm | 1.79 m/s, 238° | 21 W/m² | - |
| 1778023000 | 20° C | 64% | 1010 hPa | 0 mm | 1.79 m/s, 299° | 19 W/m² | - |
| 1778022699 | 20° C | 65% | 1009.7 hPa | 0 mm | 0.89 m/s, 199° | 14 W/m² | - |
| 1778022397 | 20° C | 65% | 1009.9 hPa | 0 mm | 1.34 m/s, 241° | 4 W/m² | - |
* Rain latest hour (hover to see other rain measurements)
** Current wind speed in m/s (hover to see current wind gust speed)